Time;durP1;ratioP1;P1;durP2;ratioP2;P2;SDS_P1;SDS_P2;PMS_P1;PMS_P2;Temp;Humidity;BMP_temperature;BMP_pressure;BME280_temperature;BME280_humidity;BME280_pressure;Samples;Min_cycle;Max_cycle;Signal;HPM_P1;HPM_P2
2023/10/21 00:01:57;;;;;;;2.07;1.07;;;13.20;10.40;;;;;;5051518;28;20211;-69
2023/10/21 00:04:23;;;;;;;1.50;0.50;;;13.20;10.50;;;;;;5051380;28;20530;-70
2023/10/21 00:06:49;;;;;;;2.10;0.83;;;13.10;11.40;;;;;;5051449;28;20408;-69
2023/10/21 00:09:14;;;;;;;2.10;1.40;;;13.20;10.90;;;;;;5051139;28;20162;-69
2023/10/21 00:11:40;;;;;;;2.67;1.20;;;13.10;11.00;;;;;;5051395;28;20215;-69
2023/10/21 00:14:06;;;;;;;3.10;1.27;;;13.10;11.20;;;;;;5052075;28;20268;-69
2023/10/21 00:16:32;;;;;;;2.00;0.80;;;13.20;11.30;;;;;;5055461;28;20364;-70
2023/10/21 00:18:58;;;;;;;1.70;0.57;;;13.20;11.80;;;;;;5055248;28;20467;-70
2023/10/21 00:21:23;;;;;;;1.60;0.60;;;13.10;11.80;;;;;;5055265;28;20284;-70
2023/10/21 00:23:49;;;;;;;2.97;0.60;;;13.20;11.10;;;;;;5055583;28;20178;-69
2023/10/21 00:26:18;;;;;;;2.00;0.80;;;13.30;11.30;;;;;;5055097;28;20220;-69
2023/10/21 00:28:43;;;;;;;1.70;0.60;;;13.20;11.80;;;;;;5054682;28;20205;-69
2023/10/21 00:31:09;;;;;;;2.03;0.87;;;13.20;11.60;;;;;;5054869;28;20419;-69
2023/10/21 00:33:34;;;;;;;1.73;0.70;;;13.20;11.90;;;;;;5054847;28;20325;-69
2023/10/21 00:36:00;;;;;;;3.50;0.77;;;13.10;12.20;;;;;;5054912;28;20236;-69
2023/10/21 00:38:26;;;;;;;1.80;0.70;;;13.10;12.90;;;;;;5054564;28;20283;-69
2023/10/21 00:40:53;;;;;;;3.10;0.67;;;13.00;13.00;;;;;;5055131;28;20548;-69
2023/10/21 00:43:35;;;;;;;2.10;0.73;;;12.90;14.00;;;;;;5054974;28;20166;-69
2023/10/21 00:46:05;;;;;;;2.00;0.70;;;12.90;13.80;;;;;;5054969;28;20412;-69
2023/10/21 00:48:32;;;;;;;1.80;0.73;;;12.80;14.10;;;;;;5054797;28;20435;-69
2023/10/21 00:50:58;;;;;;;1.90;1.00;;;12.80;15.30;;;;;;5054647;28;20422;-69
2023/10/21 00:53:24;;;;;;;2.03;0.90;;;12.80;15.90;;;;;;5054566;28;20802;-69
2023/10/21 00:55:51;;;;;;;1.80;0.67;;;12.70;15.90;;;;;;5054683;28;20413;-70
2023/10/21 00:58:18;;;;;;;1.80;0.80;;;12.70;16.50;;;;;;5054150;28;20425;-69
2023/10/21 01:00:43;;;;;;;2.10;1.00;;;12.60;17.20;;;;;;5054207;28;20496;-69
2023/10/21 01:03:09;;;;;;;2.43;1.00;;;12.60;17.70;;;;;;5054576;28;20503;-69
2023/10/21 01:05:34;;;;;;;2.00;0.70;;;12.60;17.90;;;;;;5054295;28;20185;-69
2023/10/21 01:08:00;;;;;;;2.87;0.77;;;12.70;17.60;;;;;;5053868;28;20228;-69
2023/10/21 01:10:26;;;;;;;2.23;0.87;;;12.60;17.30;;;;;;5054233;28;20178;-69
2023/10/21 01:12:51;;;;;;;1.97;0.80;;;12.60;17.90;;;;;;5054290;28;20205;-69
2023/10/21 01:15:17;;;;;;;1.93;0.70;;;12.60;17.80;;;;;;5054048;28;20224;-69
2023/10/21 01:17:49;;;;;;;3.90;0.83;;;12.50;18.40;;;;;;5053608;28;20557;-70
2023/10/21 01:20:16;;;;;;;1.83;0.60;;;12.50;18.40;;;;;;5054048;28;20440;-69
2023/10/21 01:22:45;;;;;;;2.07;0.77;;;12.40;18.90;;;;;;5054057;28;20851;-69
2023/10/21 01:25:11;;;;;;;2.00;0.80;;;12.40;19.20;;;;;;5053924;28;20459;-69
2023/10/21 01:27:36;;;;;;;2.80;1.00;;;12.30;20.00;;;;;;5053649;28;20429;-69
2023/10/21 01:30:05;;;;;;;2.10;0.80;;;12.30;20.50;;;;;;5053793;28;20478;-69
2023/10/21 01:32:31;;;;;;;1.70;0.70;;;12.30;20.40;;;;;;5053791;28;20193;-69
2023/10/21 01:34:57;;;;;;;2.23;0.80;;;12.20;20.60;;;;;;5054165;28;20414;-69
2023/10/21 01:37:22;;;;;;;1.73;0.60;;;12.20;21.30;;;;;;5053759;28;20433;-69
2023/10/21 01:39:48;;;;;;;2.97;0.73;;;12.10;21.80;;;;;;5053916;28;20167;-69
2023/10/21 01:42:13;;;;;;;1.80;0.90;;;12.10;21.80;;;;;;5053809;28;20218;-69
2023/10/21 01:44:39;;;;;;;1.80;0.80;;;12.10;21.70;;;;;;5054609;28;20178;-69
2023/10/21 01:47:05;;;;;;;1.97;0.93;;;12.10;21.50;;;;;;5054155;28;20174;-68
2023/10/21 01:49:31;;;;;;;1.83;0.90;;;12.10;21.60;;;;;;5054270;28;20209;-69
2023/10/21 01:51:57;;;;;;;1.90;0.70;;;12.10;21.50;;;;;;5054327;28;20176;-69
2023/10/21 01:54:23;;;;;;;1.53;0.60;;;12.20;20.10;;;;;;5053680;28;20770;-68
2023/10/21 01:56:49;;;;;;;1.70;0.70;;;12.20;19.90;;;;;;5053666;28;20472;-68
2023/10/21 01:59:17;;;;;;;2.33;1.07;;;12.30;17.80;;;;;;5053243;28;20185;-68
2023/10/21 02:01:43;;;;;;;1.50;0.53;;;12.30;16.50;;;;;;5053972;28;20204;-69
2023/10/21 02:04:09;;;;;;;1.60;0.50;;;12.60;14.80;;;;;;5053420;28;20917;-69
2023/10/21 02:06:34;;;;;;;2.37;1.00;;;12.90;10.40;;;;;;5053115;28;20541;-69
2023/10/21 02:09:00;;;;;;;1.77;0.60;;;13.10;8.80;;;;;;5052840;28;20217;-69
2023/10/21 02:11:25;;;;;;;1.63;0.50;;;13.30;7.50;;;;;;5053005;28;20181;-68
2023/10/21 02:13:51;;;;;;;1.50;0.50;;;13.30;6.30;;;;;;5052882;28;20553;-68
2023/10/21 02:16:17;;;;;;;1.50;0.50;;;13.30;6.00;;;;;;5052898;28;20182;-70
2023/10/21 02:18:42;;;;;;;1.90;0.60;;;13.40;5.20;;;;;;5052944;28;20269;-69
2023/10/21 02:21:08;;;;;;;1.73;0.53;;;13.40;5.30;;;;;;5053080;28;20209;-70
2023/10/21 02:23:34;;;;;;;1.60;0.53;;;13.40;5.30;;;;;;5052969;28;20205;-70
2023/10/21 02:26:04;;;;;;;1.57;0.53;;;13.40;4.90;;;;;;5052493;28;20182;-70
2023/10/21 02:28:29;;;;;;;1.63;0.50;;;13.50;4.20;;;;;;5052261;28;20437;-70
2023/10/21 02:30:55;;;;;;;1.70;0.60;;;13.50;4.10;;;;;;5052554;28;20425;-70
2023/10/21 02:33:22;;;;;;;2.70;0.70;;;13.70;3.30;;;;;;5052509;28;20204;-69
2023/10/21 02:35:55;;;;;;;1.60;0.50;;;13.70;3.80;;;;;;5052499;28;20174;-69
2023/10/21 02:38:22;;;;;;;1.50;0.53;;;13.80;2.50;;;;;;5051766;28;21011;-69
2023/10/21 02:40:48;;;;;;;1.60;0.50;;;13.70;2.70;;;;;;5052071;28;20791;-70
2023/10/21 02:43:14;;;;;;;1.50;0.43;;;13.60;3.20;;;;;;5052279;28;20417;-70
2023/10/21 02:45:39;;;;;;;1.80;0.60;;;13.60;2.70;;;;;;5052532;28;20507;-70
2023/10/21 02:48:06;;;;;;;1.50;0.40;;;13.60;3.20;;;;;;5051896;28;20661;-70
2023/10/21 02:50:31;;;;;;;1.87;0.60;;;13.70;3.30;;;;;;5052096;28;20179;-70
2023/10/21 02:52:57;;;;;;;1.50;0.50;;;13.60;3.10;;;;;;5052158;28;20471;-69
2023/10/21 02:55:25;;;;;;;2.47;0.60;;;13.70;3.30;;;;;;5052082;28;20175;-70
2023/10/21 02:57:51;;;;;;;1.60;0.53;;;13.70;2.70;;;;;;5050597;28;20313;-69
2023/10/21 03:00:17;;;;;;;1.67;0.60;;;13.70;3.10;;;;;;5051923;28;20456;-70
2023/10/21 03:02:43;;;;;;;2.53;0.50;;;13.70;2.60;;;;;;5051963;28;20600;-70
2023/10/21 03:05:09;;;;;;;2.00;0.73;;;13.70;2.50;;;;;;5051934;28;20915;-70
2023/10/21 03:07:35;;;;;;;1.60;0.60;;;13.80;2.30;;;;;;5051750;28;20432;-70
2023/10/21 03:10:01;;;;;;;1.90;0.80;;;13.80;2.80;;;;;;5051889;28;20179;-70
2023/10/21 03:12:26;;;;;;;1.50;0.47;;;13.80;2.60;;;;;;5051900;28;20202;-70
2023/10/21 03:14:52;;;;;;;1.60;0.50;;;13.90;2.00;;;;;;5052002;28;20543;-69
2023/10/21 03:17:19;;;;;;;1.50;0.50;;;13.90;1.90;;;;;;5051399;28;20217;-69
2023/10/21 03:19:45;;;;;;;1.50;0.40;;;13.90;1.90;;;;;;5051710;28;20182;-69
2023/10/21 03:22:10;;;;;;;2.07;0.57;;;13.90;1.50;;;;;;5051675;28;20455;-70
2023/10/21 03:24:35;;;;;;;1.87;0.50;;;13.90;1.90;;;;;;5051801;28;20190;-69
2023/10/21 03:27:02;;;;;;;1.50;0.40;;;13.90;2.40;;;;;;5051331;28;20166;-69
2023/10/21 03:29:27;;;;;;;2.03;0.50;;;13.90;2.20;;;;;;5051625;28;20198;-70
2023/10/21 03:31:53;;;;;;;1.60;0.60;;;13.90;2.70;;;;;;5051596;28;20455;-70
2023/10/21 03:34:18;;;;;;;1.97;0.60;;;13.80;3.20;;;;;;5051696;28;20178;-69
2023/10/21 03:36:44;;;;;;;1.70;0.90;;;13.80;3.30;;;;;;5051585;28;20239;-69
2023/10/21 03:39:09;;;;;;;1.60;0.50;;;13.80;2.60;;;;;;5051322;28;20562;-70
2023/10/21 03:41:35;;;;;;;1.70;0.60;;;13.80;2.70;;;;;;5051526;28;20611;-70
2023/10/21 03:44:01;;;;;;;1.57;0.57;;;13.80;2.80;;;;;;5051455;28;20181;-70
2023/10/21 03:46:27;;;;;;;1.50;0.40;;;13.80;2.70;;;;;;5051556;28;20210;-70
2023/10/21 03:48:52;;;;;;;1.73;0.50;;;13.80;3.40;;;;;;5051636;28;20483;-69
2023/10/21 03:51:18;;;;;;;1.57;0.50;;;13.80;3.30;;;;;;5055594;28;20579;-69
2023/10/21 03:53:43;;;;;;;1.60;0.50;;;13.80;3.30;;;;;;5055556;28;20265;-70
2023/10/21 03:56:09;;;;;;;1.60;0.50;;;13.90;2.90;;;;;;5055451;28;20249;-69
2023/10/21 03:58:36;;;;;;;1.90;0.60;;;13.90;3.30;;;;;;5055373;28;20277;-70
2023/10/21 04:01:01;;;;;;;1.50;0.53;;;13.90;3.20;;;;;;5055456;28;20199;-70
2023/10/21 04:03:27;;;;;;;2.27;0.80;;;14.00;3.20;;;;;;5055284;28;20407;-70
2023/10/21 04:05:54;;;;;;;1.50;0.50;;;14.00;3.30;;;;;;5055280;28;20544;-70
2023/10/21 04:08:20;;;;;;;1.93;0.63;;;13.90;3.40;;;;;;5055033;28;20557;-70
2023/10/21 04:10:46;;;;;;;2.07;0.50;;;13.90;3.40;;;;;;5055158;28;20923;-70
2023/10/21 04:13:12;;;;;;;1.70;0.50;;;13.90;3.40;;;;;;5055217;28;20462;-70
2023/10/21 04:15:37;;;;;;;1.60;0.60;;;13.90;3.40;;;;;;5055006;28;20213;-70
2023/10/21 04:18:03;;;;;;;1.60;0.60;;;13.90;3.40;;;;;;5054718;28;20516;-70
2023/10/21 04:20:31;;;;;;;1.70;0.60;;;13.90;3.40;;;;;;5054946;28;20278;-70
2023/10/21 04:22:57;;;;;;;1.60;0.50;;;13.90;3.40;;;;;;5055376;28;20191;-69
2023/10/21 04:25:23;;;;;;;2.23;0.60;;;13.90;3.40;;;;;;5054850;28;20409;-70
2023/10/21 04:27:49;;;;;;;4.80;0.70;;;13.80;4.10;;;;;;5054664;28;20439;-70
2023/10/21 04:30:14;;;;;;;1.63;0.60;;;13.80;4.40;;;;;;5054766;28;20919;-69
2023/10/21 04:32:40;;;;;;;2.10;0.50;;;13.80;4.60;;;;;;5054796;28;20190;-69
2023/10/21 04:35:06;;;;;;;1.70;0.67;;;13.70;4.90;;;;;;5054658;28;20181;-70
2023/10/21 04:37:32;;;;;;;1.50;0.57;;;13.70;5.00;;;;;;5054287;28;20208;-69
2023/10/21 04:39:57;;;;;;;2.03;0.50;;;13.80;4.60;;;;;;5054656;28;20793;-69
2023/10/21 04:42:23;;;;;;;1.70;0.50;;;13.80;4.70;;;;;;5054510;28;20264;-69
2023/10/21 04:44:49;;;;;;;1.50;0.50;;;13.80;5.00;;;;;;5054509;28;20575;-69
2023/10/21 04:47:18;;;;;;;1.50;0.50;;;13.80;4.70;;;;;;5054384;28;20969;-69
2023/10/21 04:49:43;;;;;;;1.77;0.60;;;13.80;5.00;;;;;;5054416;28;20175;-69
2023/10/21 04:52:11;;;;;;;1.70;0.50;;;13.90;5.00;;;;;;5054310;28;20466;-69
2023/10/21 04:54:36;;;;;;;1.80;0.50;;;13.80;5.00;;;;;;5054462;28;20174;-70
2023/10/21 04:57:02;;;;;;;2.07;0.60;;;13.90;5.00;;;;;;5054148;28;20527;-70
2023/10/21 04:59:27;;;;;;;1.50;0.40;;;13.90;5.10;;;;;;5054168;28;20171;-69
2023/10/21 05:01:53;;;;;;;2.03;0.70;;;13.90;5.00;;;;;;5053945;28;20234;-69
2023/10/21 05:04:19;;;;;;;1.50;0.47;;;13.90;5.30;;;;;;5054149;28;20206;-70
2023/10/21 05:06:44;;;;;;;1.80;0.70;;;13.90;4.50;;;;;;5054113;28;20167;-69
2023/10/21 05:09:12;;;;;;;2.47;0.50;;;13.90;4.70;;;;;;5053770;28;20244;-70
2023/10/21 05:11:38;;;;;;;2.33;0.70;;;14.00;4.50;;;;;;5054262;28;20202;-69
2023/10/21 05:14:03;;;;;;;1.60;0.60;;;14.10;3.90;;;;;;5053942;28;20409;-70
2023/10/21 05:16:29;;;;;;;2.07;0.50;;;14.10;3.50;;;;;;5053864;28;20166;-70
2023/10/21 05:18:57;;;;;;;1.60;0.50;;;14.10;3.60;;;;;;5053390;28;20325;-69
2023/10/21 05:21:22;;;;;;;1.73;0.40;;;14.10;3.50;;;;;;5053692;28;20518;-70
2023/10/21 05:23:48;;;;;;;1.57;0.50;;;14.00;3.50;;;;;;5053901;28;20915;-70
2023/10/21 05:26:13;;;;;;;1.53;0.50;;;14.10;3.50;;;;;;5053586;28;20182;-70
2023/10/21 05:28:39;;;;;;;1.47;0.40;;;14.10;2.80;;;;;;5053496;28;20225;-70
2023/10/21 05:31:05;;;;;;;1.70;0.63;;;14.10;2.60;;;;;;5053704;28;20453;-70
2023/10/21 05:33:30;;;;;;;1.70;0.57;;;14.10;2.80;;;;;;5053539;28;20209;-69
2023/10/21 05:35:59;;;;;;;1.50;0.50;;;14.10;2.90;;;;;;5053536;28;20274;-69
2023/10/21 05:38:25;;;;;;;1.50;0.40;;;14.00;1.90;;;;;;5054042;28;20267;-72
2023/10/21 05:40:51;;;;;;;3.60;0.60;;;13.90;1.80;;;;;;5054137;28;20421;-70
2023/10/21 05:43:16;;;;;;;2.10;0.60;;;14.00;1.30;;;;;;5053717;28;20183;-70
2023/10/21 05:45:43;;;;;;;2.13;0.53;;;14.00;1.00;;;;;;5053541;28;20409;-70
2023/10/21 05:48:11;;;;;;;2.13;0.63;;;14.00;1.10;;;;;;5051908;28;20206;-69
2023/10/21 05:50:37;;;;;;;1.70;0.60;;;14.00;1.00;;;;;;5053214;28;20427;-69
2023/10/21 05:53:06;;;;;;;1.50;0.40;;;14.00;1.20;;;;;;5053381;28;20416;-69
2023/10/21 05:55:31;;;;;;;2.00;0.60;;;13.90;1.00;;;;;;5053558;28;20562;-72
2023/10/21 05:57:57;;;;;;;1.47;0.40;;;13.90;1.00;;;;;;5052787;28;20540;-69
2023/10/21 06:00:23;;;;;;;1.50;0.50;;;13.90;1.00;;;;;;5053085;28;20182;-70
2023/10/21 06:02:49;;;;;;;1.57;0.60;;;13.90;1.00;;;;;;5053375;28;20674;-69
2023/10/21 06:05:15;;;;;;;1.50;0.43;;;13.90;1.00;;;;;;5053023;28;20437;-69
2023/10/21 06:07:41;;;;;;;1.80;0.67;;;13.90;1.00;;;;;;5052742;28;20444;-68
2023/10/21 06:10:08;;;;;;;1.50;0.47;;;13.90;1.00;;;;;;5053124;28;20175;-69
2023/10/21 06:12:33;;;;;;;1.50;0.50;;;13.90;1.00;;;;;;5051270;28;20794;-69
2023/10/21 06:14:59;;;;;;;1.67;0.57;;;14.00;1.00;;;;;;5052682;28;20409;-69
2023/10/21 06:17:25;;;;;;;2.80;0.90;;;14.00;1.00;;;;;;5052578;28;20242;-70
2023/10/21 06:19:51;;;;;;;1.50;0.50;;;14.00;1.00;;;;;;5052774;28;20441;-71
2023/10/21 06:22:17;;;;;;;1.60;0.50;;;14.00;1.00;;;;;;5052462;28;20205;-69
2023/10/21 06:24:43;;;;;;;1.50;0.50;;;14.10;1.00;;;;;;5052441;28;20436;-69
2023/10/21 06:27:09;;;;;;;1.53;0.47;;;14.20;1.00;;;;;;5052051;28;20199;-68
2023/10/21 06:29:35;;;;;;;1.53;0.47;;;14.30;1.00;;;;;;5052483;28;20424;-69
2023/10/21 06:32:01;;;;;;;1.50;0.40;;;14.40;1.00;;;;;;5052397;28;20183;-69
2023/10/21 06:34:26;;;;;;;1.60;0.60;;;14.40;1.00;;;;;;5052424;28;20206;-69
2023/10/21 06:36:52;;;;;;;1.77;0.53;;;14.40;1.00;;;;;;5052516;28;20472;-70
2023/10/21 06:39:18;;;;;;;1.60;0.50;;;14.30;1.00;;;;;;5052108;28;20611;-69
2023/10/21 06:41:44;;;;;;;1.97;0.50;;;14.30;1.00;;;;;;5052342;28;20588;-68
2023/10/21 06:44:10;;;;;;;1.63;0.70;;;14.20;1.00;;;;;;5050985;28;20424;-69
2023/10/21 06:46:35;;;;;;;1.57;0.50;;;14.10;1.00;;;;;;5052025;28;20650;-69
2023/10/21 06:49:01;;;;;;;1.80;0.60;;;14.00;1.00;;;;;;5051966;28;20194;-69
2023/10/21 06:51:27;;;;;;;3.37;0.83;;;13.90;1.00;;;;;;5052199;28;20185;-70
2023/10/21 06:53:53;;;;;;;1.90;0.70;;;13.90;1.00;;;;;;5052399;28;20656;-69
2023/10/21 06:56:18;;;;;;;1.70;0.70;;;13.90;1.00;;;;;;5052404;28;20614;-69
2023/10/21 06:58:47;;;;;;;1.70;0.70;;;13.90;1.00;;;;;;5051870;28;20561;-69
2023/10/21 07:01:13;;;;;;;1.60;0.50;;;13.80;1.00;;;;;;5051990;28;20221;-69
2023/10/21 07:03:39;;;;;;;1.77;0.60;;;13.80;1.00;;;;;;5052101;28;20630;-69
2023/10/21 07:06:05;;;;;;;1.80;0.60;;;13.80;1.00;;;;;;5052065;28;20413;-69
2023/10/21 07:08:33;;;;;;;1.90;0.50;;;13.70;1.00;;;;;;5051856;28;20281;-68
2023/10/21 07:10:59;;;;;;;1.93;0.50;;;13.70;1.30;;;;;;5051893;28;20416;-69
2023/10/21 07:13:24;;;;;;;1.60;0.50;;;13.70;1.00;;;;;;5051757;28;20459;-70
2023/10/21 07:15:51;;;;;;;1.50;0.50;;;13.70;1.50;;;;;;5051605;28;20186;-70
2023/10/21 07:18:17;;;;;;;1.47;0.43;;;13.70;1.30;;;;;;5051307;28;20241;-70
2023/10/21 07:20:42;;;;;;;1.60;0.50;;;13.70;1.10;;;;;;5051546;28;20902;-70
2023/10/21 07:23:08;;;;;;;2.10;0.60;;;13.70;1.00;;;;;;5051643;28;20182;-70
2023/10/21 07:25:36;;;;;;;1.50;0.50;;;13.80;1.00;;;;;;5051600;28;20177;-68
2023/10/21 07:28:03;;;;;;;1.60;0.60;;;13.90;1.00;;;;;;5051733;28;20226;-70
2023/10/21 07:30:29;;;;;;;1.60;0.70;;;14.00;1.00;;;;;;5051534;28;20567;-68
2023/10/21 07:32:55;;;;;;;1.50;0.47;;;13.90;1.00;;;;;;5051686;28;20449;-68
2023/10/21 07:35:20;;;;;;;2.97;1.00;;;14.00;1.00;;;;;;5051427;28;21004;-68
2023/10/21 07:37:46;;;;;;;10.27;1.13;;;14.00;1.00;;;;;;5051282;28;20205;-68
2023/10/21 07:40:13;;;;;;;1.70;0.60;;;14.00;1.00;;;;;;5051379;28;20550;-69
2023/10/21 07:42:38;;;;;;;1.73;0.50;;;14.00;1.00;;;;;;5051179;28;20884;-68
2023/10/21 07:45:05;;;;;;;4.43;0.60;;;14.00;1.00;;;;;;5051678;28;20506;-67
2023/10/21 07:47:33;;;;;;;1.80;0.83;;;14.10;1.00;;;;;;5051702;28;20202;-70
2023/10/21 07:49:58;;;;;;;3.30;0.70;;;14.20;1.00;;;;;;5051629;28;20451;-70
2023/10/21 07:52:24;;;;;;;1.70;0.80;;;14.20;1.00;;;;;;5050094;28;20776;-71
2023/10/21 07:54:52;;;;;;;1.80;0.60;;;14.30;1.00;;;;;;5051373;28;20182;-71
2023/10/21 07:57:18;;;;;;;1.60;0.50;;;14.30;1.00;;;;;;5051101;28;20520;-71
2023/10/21 07:59:44;;;;;;;2.53;1.23;;;14.40;1.00;;;;;;5051697;28;20936;-68
2023/10/21 08:02:10;;;;;;;1.70;0.77;;;14.30;1.00;;;;;;5051359;28;20214;-69
2023/10/21 08:04:35;;;;;;;2.07;0.77;;;14.30;1.00;;;;;;5051431;28;20866;-71
2023/10/21 08:07:01;;;;;;;1.80;0.50;;;14.40;1.00;;;;;;5051759;28;20229;-69
2023/10/21 08:09:27;;;;;;;2.20;0.60;;;14.40;1.00;;;;;;5050918;28;20195;-68
2023/10/21 08:11:52;;;;;;;2.63;0.93;;;14.50;1.00;;;;;;5051501;28;20265;-69
2023/10/21 08:14:18;;;;;;;1.70;0.70;;;14.60;1.00;;;;;;5051652;28;20183;-69
2023/10/21 08:16:44;;;;;;;2.50;0.70;;;14.60;1.00;;;;;;5051337;28;20171;-70
2023/10/21 08:19:09;;;;;;;1.60;0.60;;;14.80;1.00;;;;;;5048631;22;20492;-68
2023/10/21 08:21:35;;;;;;;2.33;0.50;;;14.80;1.00;;;;;;5031529;28;20214;-68
2023/10/21 08:24:05;;;;;;;1.70;0.70;;;14.80;1.00;;;;;;5031817;28;20402;-69
2023/10/21 08:26:31;;;;;;;1.60;0.60;;;14.80;1.00;;;;;;5032009;28;20749;-68
2023/10/21 08:28:57;;;;;;;1.50;0.50;;;15.00;1.00;;;;;;5030571;28;20541;-69
2023/10/21 08:31:24;;;;;;;1.60;0.63;;;15.10;1.00;;;;;;5030745;28;20418;-69
2023/10/21 08:33:53;;;;;;;1.53;0.63;;;15.20;1.00;;;;;;5032002;28;20417;-68
2023/10/21 08:36:20;;;;;;;2.10;0.77;;;15.10;1.00;;;;;;5034517;28;20425;-68
2023/10/21 08:38:46;;;;;;;2.10;0.77;;;15.20;1.00;;;;;;5033842;28;20449;-69
2023/10/21 08:41:12;;;;;;;4.83;1.10;;;15.30;1.00;;;;;;5035641;28;20471;-68
2023/10/21 08:43:43;;;;;;;2.13;0.93;;;15.30;1.00;;;;;;5035252;28;20436;-68
2023/10/21 08:46:09;;;;;;;2.00;0.70;;;15.50;1.00;;;;;;5034106;28;20936;-68
2023/10/21 08:48:36;;;;;;;2.90;0.93;;;15.70;1.00;;;;;;5035059;28;20537;-68
2023/10/21 08:51:04;;;;;;;1.70;0.60;;;15.80;1.00;;;;;;5035582;28;20199;-68
2023/10/21 08:53:33;;;;;;;1.80;0.73;;;15.90;1.00;;;;;;5034837;28;20406;-69
2023/10/21 08:55:59;;;;;;;1.70;0.70;;;16.10;1.00;;;;;;5033582;28;20418;-68
2023/10/21 08:58:28;;;;;;;2.83;0.90;;;16.20;1.00;;;;;;5034673;28;20430;-68
2023/10/21 09:00:54;;;;;;;3.13;1.87;;;16.40;1.00;;;;;;5034690;28;20175;-68
2023/10/21 09:03:20;;;;;;;2.00;1.10;;;16.40;1.00;;;;;;5033390;28;20429;-68
2023/10/21 09:06:06;;;;;;;1.60;0.83;;;16.60;1.00;;;;;;5034575;28;20410;-68
2023/10/21 09:08:33;;;;;;;2.13;0.93;;;16.80;1.00;;;;;;5033072;28;20206;-68
2023/10/21 09:10:59;;;;;;;1.97;0.87;;;17.00;1.00;;;;;;5033164;28;20475;-67
2023/10/21 09:13:30;;;;;;;1.80;0.90;;;17.00;1.00;;;;;;5034436;28;20434;-68
2023/10/21 09:15:55;;;;;;;2.53;1.20;;;16.80;1.00;;;;;;5034387;28;20406;-68
2023/10/21 09:18:21;;;;;;;2.00;0.83;;;16.70;1.00;;;;;;5032889;28;20882;-68
2023/10/21 09:20:50;;;;;;;2.73;1.23;;;16.60;1.00;;;;;;5034175;28;20515;-68
2023/10/21 09:23:17;;;;;;;3.00;1.30;;;16.70;1.00;;;;;;5034270;28;20293;-69
2023/10/21 09:25:51;;;;;;;2.30;1.07;;;16.80;1.00;;;;;;5034651;28;20974;-68
2023/10/21 09:28:22;;;;;;;2.97;0.87;;;16.80;1.00;;;;;;5034298;28;20453;-68
2023/10/21 09:31:01;;;;;;;2.00;0.97;;;17.00;1.00;;;;;;5034638;28;20429;-69
2023/10/21 09:33:27;;;;;;;2.00;1.00;;;17.00;1.00;;;;;;5035397;28;20418;-68
2023/10/21 09:36:04;;;;;;;2.20;1.30;;;17.30;1.00;;;;;;5036094;28;20438;-69
2023/10/21 09:38:37;;;;;;;2.13;1.10;;;17.60;1.00;;;;;;5034424;28;20964;-68
2023/10/21 09:41:09;;;;;;;1.90;1.03;;;17.40;1.00;;;;;;5035659;28;20407;-68
2023/10/21 09:43:39;;;;;;;3.40;1.20;;;17.30;1.00;;;;;;5034427;28;20428;-68
2023/10/21 09:46:05;;;;;;;2.27;1.10;;;17.10;1.00;;;;;;5034722;28;20489;-68
2023/10/21 09:48:40;;;;;;;1.70;1.00;;;17.30;1.00;;;;;;5035023;28;20473;-69
2023/10/21 09:51:09;;;;;;;2.53;1.60;;;17.30;1.00;;;;;;5035743;28;20696;-68
2023/10/21 09:53:47;;;;;;;3.30;1.30;;;17.40;1.00;;;;;;5037202;28;20418;-68
2023/10/21 09:56:15;;;;;;;3.10;1.33;;;17.50;1.00;;;;;;5036150;28;20445;-68
2023/10/21 09:58:43;;;;;;;4.00;1.77;;;17.70;1.00;;;;;;5035761;28;20557;-68
2023/10/21 10:01:10;;;;;;;1.97;1.17;;;17.70;1.00;;;;;;5034351;28;20465;-68
2023/10/21 10:03:37;;;;;;;1.80;1.20;;;17.70;1.00;;;;;;5035552;28;20414;-69
2023/10/21 10:06:04;;;;;;;2.30;1.10;;;17.80;1.00;;;;;;5034285;28;20739;-69
2023/10/21 10:08:34;;;;;;;3.30;1.47;;;17.90;1.00;;;;;;5035012;28;20491;-68
2023/10/21 10:11:10;;;;;;;2.93;1.03;;;17.90;1.00;;;;;;5034319;28;20479;-69
2023/10/21 10:13:42;;;;;;;3.80;1.30;;;17.90;1.00;;;;;;5035711;28;20410;-69
2023/10/21 10:16:23;;;;;;;3.10;1.30;;;17.80;1.00;;;;;;5035064;28;20480;-68
2023/10/21 10:18:55;;;;;;;2.10;1.20;;;17.50;1.00;;;;;;5034787;28;20449;-69
2023/10/21 10:21:21;;;;;;;5.63;1.40;;;17.40;1.00;;;;;;5033848;28;20475;-68
2023/10/21 10:23:51;;;;;;;2.27;1.23;;;17.50;1.00;;;;;;5035039;28;20501;-68
2023/10/21 10:26:36;;;;;;;2.00;1.10;;;17.40;1.00;;;;;;5034966;28;20410;-68
2023/10/21 10:29:18;;;;;;;1.90;1.10;;;17.70;1.00;;;;;;5033573;28;20469;-68
2023/10/21 10:31:46;;;;;;;1.90;1.00;;;18.00;1.00;;;;;;5034754;28;20893;-69
2023/10/21 10:34:12;;;;;;;2.20;1.20;;;18.20;1.00;;;;;;5034445;28;20414;-69
2023/10/21 10:36:38;;;;;;;1.70;1.10;;;18.10;1.00;;;;;;5034479;28;20441;-72
2023/10/21 10:39:04;;;;;;;2.17;1.30;;;17.90;1.00;;;;;;5034800;28;20214;-68
2023/10/21 10:41:31;;;;;;;2.47;1.70;;;18.10;1.00;;;;;;5034587;28;20454;-68
2023/10/21 10:44:03;;;;;;;3.40;1.33;;;18.10;1.00;;;;;;5034701;28;20475;-68
2023/10/21 10:46:31;;;;;;;2.53;1.30;;;18.30;1.00;;;;;;5034515;28;20493;-69
2023/10/21 10:49:00;;;;;;;1.70;1.30;;;18.60;1.00;;;;;;5034440;28;20877;-68
2023/10/21 10:51:30;;;;;;;4.93;1.70;;;18.60;1.00;;;;;;5034816;28;20418;-69
2023/10/21 10:54:00;;;;;;;1.97;1.33;;;18.50;1.00;;;;;;5035707;28;20924;-69
2023/10/21 10:56:43;;;;;;;2.73;1.70;;;18.40;1.00;;;;;;5034304;28;20406;-69
2023/10/21 10:59:14;;;;;;;2.60;1.23;;;18.40;1.00;;;;;;5032554;28;20442;-68
2023/10/21 11:01:39;;;;;;;1.87;1.20;;;18.20;1.00;;;;;;5034321;28;20470;-68
2023/10/21 11:04:08;;;;;;;2.27;1.40;;;18.20;1.00;;;;;;5034185;28;20951;-68
2023/10/21 11:06:36;;;;;;;2.10;1.30;;;18.30;1.00;;;;;;5034099;28;20233;-68
2023/10/21 11:09:07;;;;;;;2.03;1.77;;;18.20;1.00;;;;;;5032714;28;20442;-69
2023/10/21 11:11:46;;;;;;;3.60;1.80;;;18.60;1.00;;;;;;5033879;28;20421;-69
2023/10/21 11:14:17;;;;;;;3.13;1.90;;;19.30;1.00;;;;;;5033773;28;20779;-69
2023/10/21 11:16:43;;;;;;;2.17;1.67;;;19.20;1.00;;;;;;5034304;28;20416;-69
2023/10/21 11:19:10;;;;;;;3.23;1.87;;;19.30;1.00;;;;;;5032200;28;20470;-68
2023/10/21 11:21:39;;;;;;;1.80;1.40;;;19.70;1.00;;;;;;5033552;28;20461;-69
2023/10/21 11:24:08;;;;;;;2.23;1.77;;;19.90;1.00;;;;;;5033495;28;20425;-69
2023/10/21 11:26:34;;;;;;;3.50;1.87;;;20.10;1.00;;;;;;5033500;28;20425;-69
2023/10/21 11:29:05;;;;;;;1.90;1.57;;;20.30;1.00;;;;;;5031738;28;20544;-69
2023/10/21 11:31:31;;;;;;;2.43;1.70;;;20.30;1.00;;;;;;5032560;28;20433;-69
2023/10/21 11:34:14;;;;;;;2.00;1.80;;;20.30;1.00;;;;;;5033385;28;20956;-69
2023/10/21 11:36:46;;;;;;;1.60;1.33;;;20.10;1.00;;;;;;5033917;28;20464;-69
2023/10/21 11:39:18;;;;;;;3.60;1.47;;;20.30;1.00;;;;;;5031960;28;20933;-69
2023/10/21 11:41:47;;;;;;;1.80;1.60;;;20.50;1.00;;;;;;5033720;28;20454;-69
2023/10/21 11:44:19;;;;;;;2.00;1.80;;;20.00;1.00;;;;;;5033637;28;20410;-68
2023/10/21 11:46:46;;;;;;;1.63;1.40;;;19.70;1.00;;;;;;5033774;28;20402;-69
2023/10/21 11:49:13;;;;;;;1.90;1.60;;;19.30;1.00;;;;;;5032389;28;20446;-69
2023/10/21 11:51:42;;;;;;;1.87;1.43;;;19.10;1.00;;;;;;5033725;28;20445;-69
2023/10/21 11:54:30;;;;;;;2.23;1.60;;;19.50;1.00;;;;;;5033811;28;20444;-69
2023/10/21 11:57:40;;;;;;;1.90;1.40;;;19.40;1.00;;;;;;5035189;28;20422;-69
2023/10/21 12:01:20;;;;;;;1.60;1.40;;;19.20;1.00;;;;;;5033950;28;20422;-67
2023/10/21 12:21:54;;;;;;;2.30;1.40;;;18.50;1.00;;;;;;5040052;28;20501;-69
2023/10/21 12:34:55;;;;;;;1.77;1.30;;;17.40;1.00;;;;;;5037326;28;21038;-68
2023/10/21 12:42:44;;;;;;;1.87;1.23;;;17.30;1.00;;;;;;5037212;28;20496;-68
2023/10/21 12:45:18;;;;;;;1.80;1.37;;;17.50;1.00;;;;;;5037382;28;20425;-68
2023/10/21 12:47:47;;;;;;;2.00;1.47;;;17.50;1.00;;;;;;5036473;28;20441;-68
2023/10/21 12:50:14;;;;;;;1.60;1.20;;;17.50;1.00;;;;;;5037149;28;20410;-68
2023/10/21 12:52:49;;;;;;;3.50;1.60;;;17.70;1.00;;;;;;5037679;28;20429;-68
2023/10/21 12:55:14;;;;;;;2.60;1.53;;;17.60;1.00;;;;;;5038482;28;20479;-68
2023/10/21 12:57:43;;;;;;;2.37;2.00;;;17.70;1.00;;;;;;5038169;28;20442;-68
2023/10/21 13:00:10;;;;;;;1.80;1.27;;;17.60;1.00;;;;;;5038806;28;20248;-68
2023/10/21 13:02:37;;;;;;;3.27;1.30;;;17.60;1.00;;;;;;5038254;28;20472;-68
2023/10/21 13:05:07;;;;;;;2.90;1.47;;;17.50;1.00;;;;;;5038091;28;20407;-67
2023/10/21 13:07:33;;;;;;;1.60;1.17;;;17.30;1.00;;;;;;5036173;28;20445;-68
2023/10/21 13:09:59;;;;;;;1.90;1.43;;;17.40;1.00;;;;;;5037294;28;20458;-68
2023/10/21 13:12:25;;;;;;;1.77;1.43;;;17.40;1.00;;;;;;5038116;28;20452;-68
2023/10/21 13:14:52;;;;;;;2.60;1.13;;;17.50;1.00;;;;;;5036604;28;20425;-68
2023/10/21 13:17:18;;;;;;;2.50;1.50;;;17.60;1.00;;;;;;5037439;28;20839;-68
2023/10/21 13:19:44;;;;;;;2.73;1.10;;;17.70;1.00;;;;;;5035797;28;20808;-68
2023/10/21 13:22:10;;;;;;;1.93;1.50;;;17.90;1.00;;;;;;5038094;28;20464;-68
2023/10/21 13:24:35;;;;;;;1.80;1.40;;;17.90;1.00;;;;;;5035941;28;20275;-68
2023/10/21 13:27:04;;;;;;;1.90;1.20;;;18.00;1.00;;;;;;5035535;28;20248;-68
2023/10/21 13:29:30;;;;;;;1.80;1.43;;;18.10;1.00;;;;;;5036506;28;20181;-68
2023/10/21 13:31:56;;;;;;;1.90;1.20;;;18.20;1.00;;;;;;5035913;28;20956;-68